AEE5C LGAV-LGSR
Flight info
| Callsign | AEE5C |
|---|---|
| Flight time | 0h 25m |
| Altitude | 17000 |
| Route | KEA L607 NETIS M601 PEXAN |
| Aircraft | A320/M-SDE3FGHIRWY/LB1 |
Departure
| Time | 2026-04-23 13:28 |
|---|---|
| Airport | Athens Eleftherios Venizelos International Airport (LGAV) |
Arrival
| Time | 2026-04-23 13:53 |
|---|---|
| Airport | Santorini International Airport (LGSR) |
| Time | Latitude | Longitude | Altitude | Speed | Heading |
|---|---|---|---|---|---|
| 2026-04-23 12:55 | 37.93747 | 23.94975 | 300 ft | 0 kts | 306° |
| 2026-04-23 13:16 | 37.93744 | 23.94980 | 301 ft | 4 kts | 305° |
| 2026-04-23 13:16 | 37.93729 | 23.95009 | 301 ft | 4 kts | 299° |
| 2026-04-23 13:16 | 37.93718 | 23.95039 | 300 ft | 4 kts | 283° |
| 2026-04-23 13:16 | 37.93717 | 23.95069 | 300 ft | 4 kts | 233° |
| 2026-04-23 13:17 | 37.93725 | 23.95079 | 300 ft | 1 kts | 217° |
| 2026-04-23 13:17 | 37.93725 | 23.95080 | 300 ft | 1 kts | 217° |
| 2026-04-23 13:20 | 37.93723 | 23.95078 | 300 ft | 2 kts | 217° |
| 2026-04-23 13:20 | 37.93707 | 23.95062 | 303 ft | 5 kts | 217° |
| 2026-04-23 13:21 | 37.93663 | 23.95020 | 303 ft | 10 kts | 217° |
| 2026-04-23 13:21 | 37.93590 | 23.94951 | 302 ft | 15 kts | 217° |
| 2026-04-23 13:21 | 37.93499 | 23.94864 | 301 ft | 17 kts | 217° |
| 2026-04-23 13:21 | 37.93398 | 23.94767 | 304 ft | 19 kts | 217° |
| 2026-04-23 13:22 | 37.93295 | 23.94670 | 303 ft | 16 kts | 217° |
| 2026-04-23 13:22 | 37.93202 | 23.94581 | 302 ft | 17 kts | 219° |
| 2026-04-23 13:22 | 37.93184 | 23.94466 | 301 ft | 16 kts | 301° |
| 2026-04-23 13:22 | 37.93255 | 23.94339 | 303 ft | 19 kts | 306° |
| 2026-04-23 13:23 | 37.93245 | 23.94197 | 301 ft | 19 kts | 220° |
| 2026-04-23 13:23 | 37.93131 | 23.94091 | 303 ft | 19 kts | 214° |
| 2026-04-23 13:23 | 37.93120 | 23.93969 | 301 ft | 17 kts | 311° |
| 2026-04-23 13:23 | 37.93191 | 23.93840 | 302 ft | 19 kts | 306° |
| 2026-04-23 13:24 | 37.93289 | 23.93680 | 301 ft | 26 kts | 307° |
| 2026-04-23 13:24 | 37.93378 | 23.93527 | 301 ft | 19 kts | 306° |
| 2026-04-23 13:24 | 37.93417 | 23.93375 | 301 ft | 19 kts | 230° |
| 2026-04-23 13:24 | 37.93307 | 23.93270 | 302 ft | 21 kts | 217° |
| 2026-04-23 13:25 | 37.93186 | 23.93157 | 299 ft | 22 kts | 212° |
| 2026-04-23 13:25 | 37.93058 | 23.93035 | 298 ft | 24 kts | 217° |
| 2026-04-23 13:25 | 37.92919 | 23.92901 | 299 ft | 26 kts | 217° |
| 2026-04-23 13:25 | 37.92768 | 23.92758 | 300 ft | 28 kts | 217° |
| 2026-04-23 13:26 | 37.92610 | 23.92608 | 301 ft | 29 kts | 217° |
| 2026-04-23 13:26 | 37.92445 | 23.92452 | 301 ft | 27 kts | 217° |
| 2026-04-23 13:26 | 37.92292 | 23.92306 | 302 ft | 25 kts | 217° |
| 2026-04-23 13:26 | 37.92156 | 23.92177 | 303 ft | 25 kts | 217° |
| 2026-04-23 13:27 | 37.92124 | 23.92045 | 303 ft | 17 kts | 297° |
| 2026-04-23 13:27 | 37.92212 | 23.91964 | 304 ft | 17 kts | 14° |
| 2026-04-23 13:27 | 37.92398 | 23.92127 | 303 ft | 62 kts | 36° |
| 2026-04-23 13:27 | 37.92914 | 23.92615 | 299 ft | 120 kts | 37° |
| 2026-04-23 13:28 | 37.93710 | 23.93361 | 354 ft | 159 kts | 36° |
| 2026-04-23 13:28 | 37.94643 | 23.94253 | 769 ft | 177 kts | 37° |
| 2026-04-23 13:28 | 37.95659 | 23.95210 | 1502 ft | 184 kts | 37° |
| 2026-04-23 13:28 | 37.96648 | 23.96199 | 2429 ft | 176 kts | 38° |
| 2026-04-23 13:29 | 37.97533 | 23.97188 | 3310 ft | 163 kts | 42° |
| 2026-04-23 13:29 | 37.98178 | 23.98369 | 3818 ft | 173 kts | 69° |
| 2026-04-23 13:29 | 37.98103 | 23.99996 | 4066 ft | 205 kts | 114° |
| 2026-04-23 13:29 | 37.97062 | 24.01386 | 4358 ft | 234 kts | 142° |
| 2026-04-23 13:30 | 37.95616 | 24.02571 | 4836 ft | 260 kts | 148° |
| 2026-04-23 13:30 | 37.93992 | 24.03760 | 5462 ft | 277 kts | 149° |
| 2026-04-23 13:30 | 37.92299 | 24.04966 | 6320 ft | 283 kts | 150° |
| 2026-04-23 13:30 | 37.90570 | 24.06204 | 7177 ft | 287 kts | 150° |
| 2026-04-23 13:31 | 37.88815 | 24.07481 | 7941 ft | 294 kts | 150° |
| 2026-04-23 13:31 | 37.87035 | 24.08796 | 8821 ft | 297 kts | 150° |
| 2026-04-23 13:31 | 37.85242 | 24.10137 | 9706 ft | 300 kts | 151° |
| 2026-04-23 13:31 | 37.83419 | 24.11505 | 10266 ft | 315 kts | 151° |
| 2026-04-23 13:32 | 37.81467 | 24.12969 | 10487 ft | 338 kts | 151° |
| 2026-04-23 13:32 | 37.79378 | 24.14538 | 10705 ft | 359 kts | 151° |
| 2026-04-23 13:32 | 37.77239 | 24.16153 | 11246 ft | 367 kts | 151° |
| 2026-04-23 13:32 | 37.75032 | 24.17824 | 11892 ft | 372 kts | 152° |
| 2026-04-23 13:33 | 37.72800 | 24.19511 | 12562 ft | 377 kts | 152° |
| 2026-04-23 13:33 | 37.70537 | 24.21219 | 13244 ft | 381 kts | 152° |
| 2026-04-23 13:33 | 37.68248 | 24.22943 | 13896 ft | 386 kts | 153° |
| 2026-04-23 13:33 | 37.65982 | 24.24802 | 14456 ft | 393 kts | 148° |
| 2026-04-23 13:34 | 37.63765 | 24.26863 | 15004 ft | 398 kts | 147° |
| 2026-04-23 13:34 | 37.61551 | 24.28992 | 15589 ft | 403 kts | 147° |
| 2026-04-23 13:34 | 37.59326 | 24.31167 | 16178 ft | 407 kts | 147° |
| 2026-04-23 13:34 | 37.57081 | 24.33368 | 16753 ft | 411 kts | 147° |
| 2026-04-23 13:35 | 37.54816 | 24.35583 | 16976 ft | 413 kts | 147° |
| 2026-04-23 13:35 | 37.52495 | 24.37833 | 17027 ft | 431 kts | 148° |
| 2026-04-23 13:35 | 37.50055 | 24.40173 | 17001 ft | 449 kts | 148° |
| 2026-04-23 13:35 | 37.47545 | 24.42574 | 17011 ft | 457 kts | 147° |
| 2026-04-23 13:36 | 37.45013 | 24.45007 | 17006 ft | 458 kts | 147° |
| 2026-04-23 13:36 | 37.42486 | 24.47442 | 17013 ft | 459 kts | 147° |
| 2026-04-23 13:36 | 37.39946 | 24.49889 | 17013 ft | 459 kts | 147° |
| 2026-04-23 13:36 | 37.37407 | 24.52332 | 16989 ft | 459 kts | 147° |
| 2026-04-23 13:37 | 37.34864 | 24.54770 | 17000 ft | 460 kts | 148° |
| 2026-04-23 13:37 | 37.32318 | 24.57203 | 17000 ft | 460 kts | 148° |
| 2026-04-23 13:37 | 37.29771 | 24.59635 | 17000 ft | 460 kts | 148° |
| 2026-04-23 13:37 | 37.27222 | 24.62065 | 16998 ft | 460 kts | 148° |
| 2026-04-23 13:38 | 37.24670 | 24.64495 | 16994 ft | 460 kts | 148° |
| 2026-04-23 13:38 | 37.22121 | 24.66921 | 16995 ft | 460 kts | 148° |
| 2026-04-23 13:38 | 37.19570 | 24.69344 | 16994 ft | 460 kts | 148° |
| 2026-04-23 13:38 | 37.17022 | 24.71765 | 16996 ft | 460 kts | 148° |
| 2026-04-23 13:39 | 37.14513 | 24.74156 | 16867 ft | 438 kts | 148° |
| 2026-04-23 13:39 | 37.12147 | 24.76425 | 16050 ft | 422 kts | 147° |
| 2026-04-23 13:39 | 37.09838 | 24.78628 | 15040 ft | 413 kts | 147° |
| 2026-04-23 13:39 | 37.07571 | 24.80778 | 14013 ft | 405 kts | 147° |
| 2026-04-23 13:40 | 37.05342 | 24.82882 | 12897 ft | 398 kts | 147° |
| 2026-04-23 13:40 | 37.03155 | 24.84948 | 11824 ft | 390 kts | 146° |
| 2026-04-23 13:40 | 37.01013 | 24.86970 | 10791 ft | 381 kts | 146° |
| 2026-04-23 13:40 | 36.98920 | 24.88943 | 9818 ft | 374 kts | 146° |
| 2026-04-23 13:41 | 36.96916 | 24.90835 | 9521 ft | 347 kts | 146° |
| 2026-04-23 13:41 | 36.95065 | 24.92586 | 9383 ft | 320 kts | 146° |
| 2026-04-23 13:41 | 36.93354 | 24.94223 | 9069 ft | 304 kts | 143° |
| 2026-04-23 13:41 | 36.91806 | 24.95993 | 8499 ft | 300 kts | 139° |
| 2026-04-23 13:42 | 36.90311 | 24.97781 | 7917 ft | 296 kts | 138° |
| 2026-04-23 13:42 | 36.88842 | 24.99568 | 7338 ft | 293 kts | 137° |
| 2026-04-23 13:42 | 36.87406 | 25.01324 | 6746 ft | 292 kts | 137° |
| 2026-04-23 13:42 | 36.85960 | 25.03089 | 6148 ft | 289 kts | 136° |
| 2026-04-23 13:43 | 36.84520 | 25.04838 | 5497 ft | 289 kts | 136° |
| 2026-04-23 13:43 | 36.83077 | 25.06582 | 4881 ft | 288 kts | 135° |
| 2026-04-23 13:43 | 36.81648 | 25.08303 | 4341 ft | 283 kts | 135° |
| 2026-04-23 13:43 | 36.80245 | 25.09992 | 4028 ft | 279 kts | 135° |
| 2026-04-23 13:44 | 36.78845 | 25.11677 | 4001 ft | 275 kts | 135° |
| 2026-04-23 13:44 | 36.77524 | 25.13264 | 3999 ft | 253 kts | 135° |
| 2026-04-23 13:44 | 36.76261 | 25.14780 | 4003 ft | 251 kts | 135° |
| 2026-04-23 13:44 | 36.74997 | 25.16297 | 4007 ft | 252 kts | 135° |
| 2026-04-23 13:45 | 36.74143 | 25.17321 | 4003 ft | 251 kts | 135° |
| 2026-04-23 13:45 | 36.72491 | 25.19306 | 3830 ft | 243 kts | 134° |
| 2026-04-23 13:45 | 36.71318 | 25.20713 | 3681 ft | 226 kts | 134° |
| 2026-04-23 13:45 | 36.70211 | 25.22041 | 3548 ft | 218 kts | 134° |
| 2026-04-23 13:46 | 36.69119 | 25.23356 | 3499 ft | 219 kts | 134° |
| 2026-04-23 13:46 | 36.68024 | 25.24674 | 3509 ft | 218 kts | 134° |
| 2026-04-23 13:46 | 36.66939 | 25.25978 | 3543 ft | 216 kts | 134° |
| 2026-04-23 13:46 | 36.65851 | 25.27283 | 3528 ft | 218 kts | 134° |
| 2026-04-23 13:47 | 36.64755 | 25.28593 | 3507 ft | 219 kts | 134° |
| 2026-04-23 13:47 | 36.63664 | 25.29896 | 3496 ft | 216 kts | 134° |
| 2026-04-23 13:47 | 36.62595 | 25.31195 | 3211 ft | 215 kts | 132° |
| 2026-04-23 13:47 | 36.61510 | 25.32468 | 3001 ft | 214 kts | 131° |
| 2026-04-23 13:48 | 36.60537 | 25.33840 | 2994 ft | 205 kts | 127° |
| 2026-04-23 13:48 | 36.59662 | 25.35148 | 2988 ft | 189 kts | 126° |
| 2026-04-23 13:48 | 36.58842 | 25.36372 | 2991 ft | 181 kts | 127° |
| 2026-04-23 13:48 | 36.58055 | 25.37558 | 3004 ft | 177 kts | 127° |
| 2026-04-23 13:49 | 36.57277 | 25.38744 | 2991 ft | 175 kts | 126° |
| 2026-04-23 13:49 | 36.56521 | 25.39866 | 2791 ft | 165 kts | 130° |
| 2026-04-23 13:49 | 36.55602 | 25.40721 | 2523 ft | 164 kts | 142° |
| 2026-04-23 13:49 | 36.54657 | 25.41509 | 2507 ft | 168 kts | 150° |
| 2026-04-23 13:50 | 36.53569 | 25.42041 | 2510 ft | 169 kts | 160° |
| 2026-04-23 13:50 | 36.52450 | 25.42482 | 2503 ft | 169 kts | 160° |
| 2026-04-23 13:50 | 36.51335 | 25.42954 | 2513 ft | 169 kts | 159° |
| 2026-04-23 13:50 | 36.50253 | 25.43426 | 2273 ft | 163 kts | 158° |
| 2026-04-23 13:51 | 36.49164 | 25.43831 | 1993 ft | 161 kts | 161° |
| 2026-04-23 13:51 | 36.48079 | 25.44238 | 2001 ft | 163 kts | 163° |
| 2026-04-23 13:51 | 36.47009 | 25.44643 | 1788 ft | 159 kts | 160° |
| 2026-04-23 13:51 | 36.45955 | 25.45084 | 1417 ft | 159 kts | 159° |
| 2026-04-23 13:52 | 36.44923 | 25.45554 | 1027 ft | 158 kts | 159° |
| 2026-04-23 13:52 | 36.43902 | 25.46033 | 732 ft | 156 kts | 157° |
| 2026-04-23 13:52 | 36.43221 | 25.46368 | 599 ft | 155 kts | 159° |
| 2026-04-23 13:52 | 36.42201 | 25.46837 | 369 ft | 157 kts | 160° |
| 2026-04-23 13:53 | 36.41180 | 25.47322 | 161 ft | 158 kts | 159° |
| 2026-04-23 13:53 | 36.40193 | 25.47782 | 93 ft | 143 kts | 159° |
| 2026-04-23 13:53 | 36.39473 | 25.48123 | 63 ft | 74 kts | 158° |
| 2026-04-23 13:53 | 36.39106 | 25.48306 | 56 ft | 41 kts | 161° |
| 2026-04-23 13:54 | 36.39023 | 25.48275 | 54 ft | 5 kts | 262° |
| 2026-04-23 13:54 | 36.39013 | 25.48241 | 52 ft | 7 kts | 247° |
| 2026-04-23 13:54 | 36.39024 | 25.48180 | 55 ft | 8 kts | 310° |
| 2026-04-23 13:54 | 36.39070 | 25.48148 | 59 ft | 8 kts | 337° |
| 2026-04-23 13:55 | 36.39125 | 25.48121 | 57 ft | 12 kts | 339° |
| 2026-04-23 13:55 | 36.39209 | 25.48082 | 61 ft | 13 kts | 339° |
| 2026-04-23 13:55 | 36.39296 | 25.48041 | 64 ft | 15 kts | 339° |
| 2026-04-23 13:55 | 36.39393 | 25.47996 | 70 ft | 15 kts | 339° |
| 2026-04-23 13:56 | 36.39491 | 25.47950 | 71 ft | 15 kts | 339° |
| 2026-04-23 13:56 | 36.39591 | 25.47902 | 75 ft | 16 kts | 339° |
| 2026-04-23 13:56 | 36.39702 | 25.47849 | 83 ft | 17 kts | 339° |
| 2026-04-23 13:56 | 36.39844 | 25.47783 | 88 ft | 26 kts | 340° |
| 2026-04-23 13:57 | 36.39998 | 25.47710 | 86 ft | 22 kts | 338° |
| 2026-04-23 13:57 | 36.40126 | 25.47652 | 92 ft | 19 kts | 339° |
| 2026-04-23 13:57 | 36.40241 | 25.47592 | 89 ft | 14 kts | 330° |
| 2026-04-23 13:57 | 36.40274 | 25.47485 | 90 ft | 8 kts | 292° |
| 2026-04-23 13:58 | 36.40271 | 25.47431 | 90 ft | 5 kts | 248° |
| 2026-04-23 13:58 | 36.40269 | 25.47424 | 90 ft | 0 kts | 249° |
| 2026-04-23 14:02 | 36.40268 | 25.47424 | 90 ft | 0 kts | 249° |
| 2026-04-23 14:02 | 36.40269 | 25.47424 | 90 ft | 0 kts | 249° |
| 2026-04-23 14:03 | 36.40268 | 25.47424 | 90 ft | 0 kts | 249° |